Time;durP1;ratioP1;P1;durP2;ratioP2;P2;SDS_P1;SDS_P2;PMS_P1;PMS_P2;Temp;Humidity;BMP_temperature;BMP_pressure;BME280_temperature;BME280_humidity;BME280_pressure;Samples;Min_cycle;Max_cycle;Signal;HPM_P1;HPM_P2
2021/10/30 00:17:32;;;;;;;3.35;2.75;;;;;;;;;;13002112;22;20062;-85
2021/10/30 00:22:33;;;;;;;4.10;3.25;;;;;;;;;;12978864;22;19996;-86
2021/10/30 00:27:34;;;;;;;4.10;3.15;;;;;;;;;;12911345;23;20012;-86
2021/10/30 00:32:35;;;;;;;7.47;4.70;;;;;;;;;;12912984;23;20070;-86
2021/10/30 00:37:36;;;;;;;4.03;3.47;;;;;;;;;;12909847;23;20000;-86
2021/10/30 00:42:38;;;;;;;6.00;4.40;;;;;;;;;;12908974;23;20000;-86
2021/10/30 00:47:39;;;;;;;6.15;4.63;;;;;;;;;;12941845;22;20012;-86
2021/10/30 00:52:41;;;;;;;4.18;3.78;;;;;;;;;;12918887;23;20023;-86
2021/10/30 00:57:43;;;;;;;5.32;3.60;;;;;;;;;;12936952;22;20000;-87
2021/10/30 01:02:45;;;;;;;6.22;4.05;;;;;;;;;;12907786;23;20008;-85
2021/10/30 01:07:47;;;;;;;6.47;4.25;;;;;;;;;;12904657;23;20036;-85
2021/10/30 01:12:49;;;;;;;5.25;4.20;;;;;;;;;;12904465;23;20000;-85
2021/10/30 01:17:50;;;;;;;5.35;3.90;;;;;;;;;;12903242;23;20460;-86
2021/10/30 01:22:50;;;;;;;5.18;3.45;;;;;;;;;;12904782;22;20007;-85
2021/10/30 01:27:52;;;;;;;4.38;3.42;;;;;;;;;;12902075;23;20006;-85
2021/10/30 01:32:53;;;;;;;5.28;3.80;;;;;;;;;;12901594;22;20008;-85
2021/10/30 01:37:55;;;;;;;5.32;4.05;;;;;;;;;;12902475;23;20004;-85
2021/10/30 01:42:58;;;;;;;4.75;3.90;;;;;;;;;;12928876;22;20062;-85
2021/10/30 01:47:59;;;;;;;4.30;3.83;;;;;;;;;;12903887;23;20068;-86
2021/10/30 01:53:01;;;;;;;4.10;3.35;;;;;;;;;;12908960;22;20412;-86
2021/10/30 01:58:02;;;;;;;4.38;3.50;;;;;;;;;;12936974;23;20035;-85
2021/10/30 02:03:03;;;;;;;5.03;3.38;;;;;;;;;;12909975;22;20031;-85
2021/10/30 02:08:04;;;;;;;5.00;3.63;;;;;;;;;;12915445;23;20082;-87
2021/10/30 02:13:05;;;;;;;4.10;2.83;;;;;;;;;;12917605;22;19996;-87
2021/10/30 02:18:06;;;;;;;5.05;3.90;;;;;;;;;;12931529;23;20083;-85
2021/10/30 02:23:07;;;;;;;3.78;3.10;;;;;;;;;;12922928;22;20012;-82
2021/10/30 02:28:09;;;;;;;4.07;2.92;;;;;;;;;;12908826;23;20340;-83
2021/10/30 02:33:10;;;;;;;3.63;3.30;;;;;;;;;;12916872;22;19988;-84
2021/10/30 02:38:11;;;;;;;3.65;3.15;;;;;;;;;;12950538;23;20019;-85
2021/10/30 02:43:12;;;;;;;4.00;3.47;;;;;;;;;;12944908;22;20064;-85
2021/10/30 02:48:13;;;;;;;4.68;3.47;;;;;;;;;;12914490;23;20095;-84
2021/10/30 02:53:14;;;;;;;4.30;3.15;;;;;;;;;;12915376;22;20090;-84
2021/10/30 02:58:14;;;;;;;4.38;3.30;;;;;;;;;;12913896;23;20309;-84
2021/10/30 03:03:15;;;;;;;4.95;3.10;;;;;;;;;;12938737;22;20000;-83
2021/10/30 03:08:16;;;;;;;3.15;2.83;;;;;;;;;;12910066;23;20031;-82
2021/10/30 03:13:17;;;;;;;4.20;2.97;;;;;;;;;;12937578;22;20046;-83
2021/10/30 03:18:18;;;;;;;3.22;2.83;;;;;;;;;;12909523;23;20340;-83
2021/10/30 03:23:19;;;;;;;4.45;3.53;;;;;;;;;;12909674;22;20008;-82
2021/10/30 03:28:20;;;;;;;3.83;3.22;;;;;;;;;;12909095;23;20054;-84
2021/10/30 03:33:21;;;;;;;3.35;2.78;;;;;;;;;;12910700;22;20000;-83
2021/10/30 03:38:22;;;;;;;4.97;3.30;;;;;;;;;;12909210;23;20011;-83
2021/10/30 03:43:23;;;;;;;5.35;3.65;;;;;;;;;;12909505;22;20038;-82
2021/10/30 03:48:24;;;;;;;4.45;3.28;;;;;;;;;;12910381;23;20011;-83
2021/10/30 03:53:25;;;;;;;5.70;3.95;;;;;;;;;;12910988;22;20055;-83
2021/10/30 03:58:28;;;;;;;3.78;3.13;;;;;;;;;;12910348;23;20011;-83
2021/10/30 04:03:28;;;;;;;3.85;3.00;;;;;;;;;;12911376;22;20428;-83
2021/10/30 04:08:30;;;;;;;5.88;3.42;;;;;;;;;;12911236;23;20004;-84
2021/10/30 04:13:30;;;;;;;4.20;3.00;;;;;;;;;;12912282;22;20027;-84
2021/10/30 04:18:31;;;;;;;3.10;2.78;;;;;;;;;;12915559;23;20030;-83
2021/10/30 04:23:32;;;;;;;4.13;2.88;;;;;;;;;;12936022;22;20087;-84
2021/10/30 04:28:33;;;;;;;5.63;3.47;;;;;;;;;;12910417;23;20015;-83
2021/10/30 04:33:36;;;;;;;4.30;3.13;;;;;;;;;;12913829;22;20069;-84
2021/10/30 04:38:37;;;;;;;4.78;3.80;;;;;;;;;;12954696;23;20003;-84
2021/10/30 04:43:38;;;;;;;6.75;3.97;;;;;;;;;;12913549;22;20150;-82
2021/10/30 04:48:39;;;;;;;8.35;6.95;;;;;;;;;;12905579;23;20036;-83
2021/10/30 04:53:41;;;;;;;5.38;3.70;;;;;;;;;;12905180;22;20000;-85
2021/10/30 04:58:44;;;;;;;4.78;3.60;;;;;;;;;;12931947;23;20004;-86
2021/10/30 05:03:45;;;;;;;5.63;3.90;;;;;;;;;;12904079;22;20004;-85
2021/10/30 05:08:46;;;;;;;4.68;3.90;;;;;;;;;;12906541;23;20036;-86
2021/10/30 05:13:47;;;;;;;;;;;;;;;;;;12904175;22;20455;-85
2021/10/30 05:18:48;;;;;;;5.20;3.78;;;;;;;;;;12903292;23;19906;-86
2021/10/30 05:23:48;;;;;;;;;;;;;;;;;;12903112;22;20071;-86
2021/10/30 05:28:50;;;;;;;3.83;3.33;;;;;;;;;;12926866;23;19907;-83
2021/10/30 05:33:51;;;;;;;4.13;3.40;;;;;;;;;;12941299;22;20004;-86
2021/10/30 05:38:53;;;;;;;7.20;3.95;;;;;;;;;;12940024;23;19996;-87
2021/10/30 05:43:54;;;;;;;6.90;4.20;;;;;;;;;;12915115;22;20007;-87
2021/10/30 05:48:56;;;;;;;5.25;3.78;;;;;;;;;;12914607;23;20012;-87
2021/10/30 05:53:57;;;;;;;6.13;4.05;;;;;;;;;;12913029;22;20015;-86
2021/10/30 05:58:58;;;;;;;4.68;3.70;;;;;;;;;;12912071;23;20377;-86
2021/10/30 06:03:59;;;;;;;5.05;3.95;;;;;;;;;;12911510;22;20022;-87
2021/10/30 06:09:00;;;;;;;4.63;3.28;;;;;;;;;;12910368;23;20008;-87
2021/10/30 06:14:03;;;;;;;8.02;3.97;;;;;;;;;;12912345;22;20387;-84
2021/10/30 06:19:04;;;;;;;4.05;3.40;;;;;;;;;;12908794;23;20040;-85
2021/10/30 06:24:05;;;;;;;5.80;3.85;;;;;;;;;;12935692;22;20000;-83
2021/10/30 06:29:06;;;;;;;;;;;;;;;;;;12908798;23;20391;-83
2021/10/30 06:34:07;;;;;;;3.63;3.17;;;;;;;;;;12908536;22;19904;-84
2021/10/30 06:39:08;;;;;;;;;;;;;;;;;;12910190;23;20087;-86
2021/10/30 06:44:09;;;;;;;4.10;2.50;;;;;;;;;;12935022;22;19899;-85
2021/10/30 06:49:12;;;;;;;5.47;3.92;;;;;;;;;;12907486;23;20004;-84
2021/10/30 06:54:13;;;;;;;3.90;2.97;;;;;;;;;;12921361;22;20099;-84
2021/10/30 06:59:14;;;;;;;5.30;4.35;;;;;;;;;;12913700;23;20008;-85
2021/10/30 07:04:15;;;;;;;3.28;2.40;;;;;;;;;;12912157;22;20008;-78
2021/10/30 07:09:16;;;;;;;5.47;3.50;;;;;;;;;;12919849;23;20059;-81
2021/10/30 07:14:18;;;;;;;6.97;3.35;;;;;;;;;;12941085;22;20082;-83
2021/10/30 07:19:21;;;;;;;5.30;3.58;;;;;;;;;;12853954;23;20055;-82
2021/10/30 07:24:22;;;;;;;5.15;3.10;;;;;;;;;;12853032;23;20004;-82
2021/10/30 07:29:23;;;;;;;5.95;3.00;;;;;;;;;;12852890;23;20032;-82
2021/10/30 07:34:24;;;;;;;5.45;2.97;;;;;;;;;;12856727;23;20088;-82
2021/10/30 07:39:24;;;;;;;6.90;3.10;;;;;;;;;;12852375;23;20008;-82
2021/10/30 07:44:25;;;;;;;6.47;3.25;;;;;;;;;;12854317;23;20019;-81
2021/10/30 07:49:27;;;;;;;4.68;3.15;;;;;;;;;;12857244;23;20012;-83
2021/10/30 07:54:28;;;;;;;4.43;2.95;;;;;;;;;;12879758;23;20285;-83
2021/10/30 07:59:30;;;;;;;4.90;2.83;;;;;;;;;;12853006;23;20005;-85
2021/10/30 08:04:33;;;;;;;4.30;3.08;;;;;;;;;;12852579;23;20011;-84
2021/10/30 08:09:34;;;;;;;5.93;4.18;;;;;;;;;;12852594;23;20514;-83
2021/10/30 08:14:35;;;;;;;5.72;4.50;;;;;;;;;;12852740;23;20090;-82
2021/10/30 08:19:36;;;;;;;6.18;3.60;;;;;;;;;;12853235;23;20432;-83
2021/10/30 08:24:37;;;;;;;6.53;3.90;;;;;;;;;;12871864;23;19993;-81
2021/10/30 08:29:38;;;;;;;4.65;3.60;;;;;;;;;;12875904;23;20373;-86
2021/10/30 08:34:40;;;;;;;4.07;3.17;;;;;;;;;;12880222;23;20008;-86
2021/10/30 08:39:41;;;;;;;7.22;3.63;;;;;;;;;;12859337;23;20021;-85
2021/10/30 08:44:42;;;;;;;6.10;3.28;;;;;;;;;;12852214;23;20083;-86
2021/10/30 08:49:43;;;;;;;5.82;3.38;;;;;;;;;;12873872;23;20008;-85
2021/10/30 08:54:44;;;;;;;11.13;3.92;;;;;;;;;;12845083;23;20128;-87
2021/10/30 08:59:46;;;;;;;6.07;3.28;;;;;;;;;;12843558;23;20352;-84
2021/10/30 09:05:05;;;;;;;7.78;3.35;;;;;;;;;;12862722;23;20142;-86
2021/10/30 09:10:15;;;;;;;9.57;3.45;;;;;;;;;;12882425;23;20023;-85
2021/10/30 09:15:19;;;;;;;7.68;3.53;;;;;;;;;;12864246;23;20254;-86
2021/10/30 09:20:29;;;;;;;6.93;3.22;;;;;;;;;;12844930;23;20279;-86
2021/10/30 09:25:30;;;;;;;4.43;3.08;;;;;;;;;;12839780;23;20133;-85
2021/10/30 09:30:32;;;;;;;4.68;3.17;;;;;;;;;;12841899;23;20087;-86
2021/10/30 09:35:40;;;;;;;5.00;2.90;;;;;;;;;;12843376;23;20000;-87
2021/10/30 09:40:41;;;;;;;5.55;3.00;;;;;;;;;;12840534;23;20015;-86
2021/10/30 09:45:47;;;;;;;6.35;3.13;;;;;;;;;;12840020;23;20004;-87
2021/10/30 09:50:58;;;;;;;5.95;2.70;;;;;;;;;;12840920;23;20001;-86
2021/10/30 09:56:00;;;;;;;6.50;3.00;;;;;;;;;;12843154;23;20444;-87
2021/10/30 10:01:02;;;;;;;5.07;3.17;;;;;;;;;;12844885;23;20008;-88
2021/10/30 10:06:04;;;;;;;8.40;2.80;;;;;;;;;;12852721;23;20060;-87
2021/10/30 10:11:15;;;;;;;9.30;3.22;;;;;;;;;;12847845;23;20009;-88
2021/10/30 10:16:19;;;;;;;5.22;3.10;;;;;;;;;;12843170;23;20034;-87
2021/10/30 10:21:26;;;;;;;4.43;2.85;;;;;;;;;;12861345;23;20396;-85
2021/10/30 10:26:32;;;;;;;5.07;2.97;;;;;;;;;;12868481;23;20004;-86
2021/10/30 10:31:33;;;;;;;5.45;3.22;;;;;;;;;;12856162;23;20024;-86
2021/10/30 10:36:34;;;;;;;5.20;2.90;;;;;;;;;;12853135;23;20004;-83
2021/10/30 10:41:56;;;;;;;5.63;3.85;;;;;;;;;;12850604;23;20318;-83
2021/10/30 10:46:58;;;;;;;7.15;4.50;;;;;;;;;;12851701;23;20009;-84
2021/10/30 10:52:02;;;;;;;6.35;3.90;;;;;;;;;;12851959;23;20334;-85
2021/10/30 10:57:03;;;;;;;3.78;3.13;;;;;;;;;;12849931;23;20000;-84
2021/10/30 11:02:27;;;;;;;3.92;3.08;;;;;;;;;;12850023;23;20088;-84
2021/10/30 11:07:28;;;;;;;5.03;3.00;;;;;;;;;;12849758;23;20004;-85
2021/10/30 11:12:29;;;;;;;4.15;3.45;;;;;;;;;;12852215;23;20041;-84
2021/10/30 11:17:37;;;;;;;4.63;2.83;;;;;;;;;;12851450;23;20020;-83
2021/10/30 11:22:52;;;;;;;4.75;3.33;;;;;;;;;;12901559;23;20004;-83
2021/10/30 11:27:53;;;;;;;3.92;3.00;;;;;;;;;;12870177;23;20068;-83
2021/10/30 11:32:56;;;;;;;4.75;3.17;;;;;;;;;;12862378;23;20035;-81
2021/10/30 11:38:08;;;;;;;4.97;3.13;;;;;;;;;;12850179;23;20012;-81
2021/10/30 11:43:09;;;;;;;3.80;3.05;;;;;;;;;;12851161;23;20000;-82
2021/10/30 11:48:10;;;;;;;5.13;2.83;;;;;;;;;;12859592;23;20004;-81
2021/10/30 11:53:12;;;;;;;5.13;2.80;;;;;;;;;;12854030;23;20067;-83
2021/10/30 11:58:12;;;;;;;4.20;3.00;;;;;;;;;;12854486;23;20012;-82
2021/10/30 12:03:13;;;;;;;6.50;3.28;;;;;;;;;;12853594;23;20028;-83
2021/10/30 12:08:14;;;;;;;4.53;3.25;;;;;;;;;;12852710;23;20043;-80
2021/10/30 12:13:16;;;;;;;4.28;2.95;;;;;;;;;;12853466;23;20055;-83
2021/10/30 12:18:17;;;;;;;5.53;3.25;;;;;;;;;;12850064;23;20012;-84
2021/10/30 12:23:18;;;;;;;4.10;3.38;;;;;;;;;;12861755;23;19993;-81
2021/10/30 12:28:30;;;;;;;3.97;2.97;;;;;;;;;;12872887;23;20008;-80
2021/10/30 12:33:35;;;;;;;6.78;3.10;;;;;;;;;;12848965;23;20027;-85
2021/10/30 12:38:36;;;;;;;5.32;3.30;;;;;;;;;;12875270;23;20008;-80
2021/10/30 12:43:42;;;;;;;5.00;3.13;;;;;;;;;;12850290;23;20009;-83
2021/10/30 12:48:44;;;;;;;4.60;3.05;;;;;;;;;;12850162;23;20076;-84
2021/10/30 12:53:47;;;;;;;5.00;2.83;;;;;;;;;;12849586;23;20025;-84
2021/10/30 12:58:56;;;;;;;4.40;3.10;;;;;;;;;;12853564;23;20016;-86
2021/10/30 13:04:06;;;;;;;5.22;3.08;;;;;;;;;;12861126;23;20005;-86
2021/10/30 13:09:12;;;;;;;;;;;;;;;;;;12888067;23;20004;-82
2021/10/30 13:19:53;;;;;;;3.80;3.10;;;;;;;;;;12890811;23;20005;-83
2021/10/30 13:24:56;;;;;;;5.55;2.67;;;;;;;;;;12858766;23;20047;-86
2021/10/30 13:30:21;;;;;;;4.97;2.63;;;;;;;;;;12867745;23;20009;-83
2021/10/30 13:41:02;;;;;;;6.30;2.80;;;;;;;;;;12904201;23;20028;-82
2021/10/30 13:46:03;;;;;;;5.55;3.03;;;;;;;;;;12869978;23;20004;-82
2021/10/30 13:51:06;;;;;;;3.38;2.80;;;;;;;;;;12865479;23;20409;-83
2021/10/30 13:56:07;;;;;;;4.82;2.90;;;;;;;;;;12858266;23;20005;-82
2021/10/30 14:01:09;;;;;;;4.47;2.70;;;;;;;;;;12859512;23;20012;-84
2021/10/30 14:06:10;;;;;;;5.68;2.70;;;;;;;;;;12863979;23;20005;-82
2021/10/30 14:11:12;;;;;;;4.05;2.75;;;;;;;;;;12865886;23;20008;-83
2021/10/30 14:16:13;;;;;;;12.48;9.35;;;;;;;;;;12889121;23;20035;-81
2021/10/30 14:21:15;;;;;;;5.90;3.00;;;;;;;;;;12884035;23;20039;-82
2021/10/30 14:26:17;;;;;;;4.50;3.15;;;;;;;;;;12888234;23;20004;-84
2021/10/30 14:31:18;;;;;;;4.10;2.45;;;;;;;;;;12903976;23;20020;-84
2021/10/30 14:36:33;;;;;;;4.40;2.75;;;;;;;;;;12871857;23;20032;-84
2021/10/30 14:42:18;;;;;;;4.00;2.67;;;;;;;;;;12900132;23;20063;-86
2021/10/30 14:47:21;;;;;;;4.55;2.30;;;;;;;;;;12865743;23;20009;-85
2021/10/30 14:58:32;;;;;;;4.40;2.40;;;;;;;;;;12896099;23;20013;-87
2021/10/30 15:03:33;;;;;;;;;;;;;;;;;;12867167;23;20072;-84
2021/10/30 15:08:34;;;;;;;5.38;2.55;;;;;;;;;;12868714;23;19914;-83
2021/10/30 15:13:43;;;;;;;4.53;2.47;;;;;;;;;;12871237;23;20024;-82
2021/10/30 15:18:44;;;;;;;4.40;2.42;;;;;;;;;;12875242;23;20147;-83
2021/10/30 15:23:45;;;;;;;5.13;2.25;;;;;;;;;;12869436;23;20015;-86
2021/10/30 15:28:46;;;;;;;3.58;2.72;;;;;;;;;;12861886;23;20448;-85
2021/10/30 15:33:47;;;;;;;;;;;;;;;;;;12864229;23;20000;-85
2021/10/30 15:38:48;;;;;;;4.13;2.60;;;;;;;;;;12871435;23;19979;-85
2021/10/30 15:43:49;;;;;;;;;;;;;;;;;;12860727;23;20011;-85
2021/10/30 15:48:50;;;;;;;4.75;3.50;;;;;;;;;;12866357;23;19927;-85
2021/10/30 15:53:51;;;;;;;;;;;;;;;;;;12866918;23;20007;-84
2021/10/30 15:58:52;;;;;;;3.75;2.28;;;;;;;;;;12856143;23;19900;-87
2021/10/30 16:03:53;;;;;;;;;;;;;;;;;;12866324;23;20072;-87
2021/10/30 16:08:54;;;;;;;3.42;2.50;;;;;;;;;;12859654;23;19948;-87
2021/10/30 16:13:55;;;;;;;;;;;;;;;;;;12872357;23;20013;-87
2021/10/30 16:18:56;;;;;;;4.63;2.80;;;;;;;;;;12859435;23;19900;-86
2021/10/30 16:23:57;;;;;;;2.88;1.98;;;;;;;;;;12871074;23;20008;-85
2021/10/30 16:28:57;;;;;;;;;;;;;;;;;;12909926;23;20015;-84
2021/10/30 16:33:59;;;;;;;4.00;2.47;;;;;;;;;;12859680;23;19900;-85
2021/10/30 16:39:01;;;;;;;4.55;2.63;;;;;;;;;;12866220;23;20012;-86
2021/10/30 16:44:06;;;;;;;4.03;3.28;;;;;;;;;;12848528;23;20158;-84
2021/10/30 16:49:09;;;;;;;3.83;2.85;;;;;;;;;;12852727;23;20014;-85
2021/10/30 16:54:10;;;;;;;4.10;2.50;;;;;;;;;;12861289;23;20315;-87
2021/10/30 16:59:11;;;;;;;4.05;2.63;;;;;;;;;;12858869;23;20047;-84
2021/10/30 17:04:12;;;;;;;;;;;;;;;;;;12863712;23;20008;-85
2021/10/30 17:09:13;;;;;;;5.70;3.40;;;;;;;;;;12864866;23;19911;-87
2021/10/30 17:14:13;;;;;;;;;;;;;;;;;;12872956;23;20005;-84
2021/10/30 17:19:15;;;;;;;4.82;2.83;;;;;;;;;;12893601;23;19904;-84
2021/10/30 17:24:15;;;;;;;;;;;;;;;;;;12893536;23;20013;-82
2021/10/30 17:29:16;;;;;;;4.97;3.90;;;;;;;;;;12892731;23;19986;-83
2021/10/30 17:34:17;;;;;;;;;;;;;;;;;;12886336;23;20032;-85
2021/10/30 17:39:19;;;;;;;5.28;3.67;;;;;;;;;;12870060;23;20339;-85
2021/10/30 17:44:20;;;;;;;5.60;4.00;;;;;;;;;;12896153;23;20013;-84
2021/10/30 17:49:20;;;;;;;;;;;;;;;;;;12867539;23;20036;-85
2021/10/30 17:54:22;;;;;;;4.20;3.40;;;;;;;;;;12871616;23;19907;-85
2021/10/30 17:59:22;;;;;;;4.75;3.47;;;;;;;;;;12870225;23;20080;-85
2021/10/30 18:04:23;;;;;;;;;;;;;;;;;;12867062;23;20015;-85
2021/10/30 18:09:25;;;;;;;5.35;4.25;;;;;;;;;;12871881;23;19915;-87
2021/10/30 18:14:27;;;;;;;4.40;3.30;;;;;;;;;;12863267;23;20043;-86
2021/10/30 18:19:28;;;;;;;6.07;4.25;;;;;;;;;;12864691;23;20007;-84
2021/10/30 18:24:29;;;;;;;;;;;;;;;;;;12872369;23;20317;-84
2021/10/30 18:29:31;;;;;;;6.68;4.68;;;;;;;;;;12881630;23;19919;-84
2021/10/30 18:34:31;;;;;;;6.30;3.65;;;;;;;;;;12862316;23;20068;-84
2021/10/30 18:39:33;;;;;;;;;;;;;;;;;;12856904;23;20012;-85
2021/10/30 18:44:36;;;;;;;5.65;4.53;;;;;;;;;;12858604;23;19906;-86
2021/10/30 18:49:37;;;;;;;5.40;4.22;;;;;;;;;;12871550;23;20009;-86
2021/10/30 18:54:38;;;;;;;6.05;4.93;;;;;;;;;;12871612;23;20007;-86
2021/10/30 18:59:41;;;;;;;;;;;;;;;;;;12874576;23;20015;-86
2021/10/30 19:04:42;;;;;;;5.07;4.20;;;;;;;;;;12871514;23;19939;-86
2021/10/30 19:09:43;;;;;;;;;;;;;;;;;;12873727;23;20009;-83
2021/10/30 19:14:44;;;;;;;5.35;4.63;;;;;;;;;;12869353;23;19908;-85
2021/10/30 19:19:45;;;;;;;6.72;4.57;;;;;;;;;;12855196;23;20099;-84
2021/10/30 19:24:46;;;;;;;;;;;;;;;;;;12865989;23;20001;-84
2021/10/30 19:29:47;;;;;;;4.72;3.85;;;;;;;;;;12870068;23;19959;-82
2021/10/30 19:34:48;;;;;;;;;;;;;;;;;;12877171;23;20325;-82
2021/10/30 19:39:49;;;;;;;3.50;3.05;;;;;;;;;;12876005;23;20383;-83
2021/10/30 19:44:49;;;;;;;;;;;;;;;;;;12876653;23;20004;-85
2021/10/30 19:49:51;;;;;;;5.68;4.60;;;;;;;;;;12874549;23;19904;-85
2021/10/30 19:54:52;;;;;;;5.53;4.40;;;;;;;;;;12875327;23;20000;-84
2021/10/30 19:59:53;;;;;;;5.40;3.90;;;;;;;;;;12875917;23;20004;-83
2021/10/30 20:04:54;;;;;;;4.53;3.80;;;;;;;;;;12869636;23;20004;-85
2021/10/30 20:09:55;;;;;;;5.85;5.00;;;;;;;;;;12877805;23;20012;-84
2021/10/30 20:14:56;;;;;;;3.90;3.50;;;;;;;;;;12889416;23;20013;-85
2021/10/30 20:19:57;;;;;;;;;;;;;;;;;;12890606;23;20019;-86
2021/10/30 20:24:58;;;;;;;3.58;2.97;;;;;;;;;;12876997;23;19920;-85
2021/10/30 20:29:58;;;;;;;4.22;3.33;;;;;;;;;;12881486;23;20000;-85
2021/10/30 20:34:59;;;;;;;;;;;;;;;;;;12883678;23;20044;-86
2021/10/30 20:40:00;;;;;;;3.92;2.72;;;;;;;;;;12848019;23;19930;-86
2021/10/30 20:45:01;;;;;;;4.20;3.50;;;;;;;;;;12843205;23;20376;-86
2021/10/30 20:50:03;;;;;;;3.50;2.88;;;;;;;;;;12840888;23;20011;-86
2021/10/30 20:55:05;;;;;;;2.85;2.55;;;;;;;;;;12841140;23;20336;-86
2021/10/30 21:00:07;;;;;;;3.13;2.60;;;;;;;;;;12839875;23;20075;-86
2021/10/30 21:05:09;;;;;;;3.80;3.13;;;;;;;;;;12867460;23;20080;-87
2021/10/30 21:10:10;;;;;;;4.20;3.58;;;;;;;;;;12841343;23;20103;-84
2021/10/30 21:15:11;;;;;;;542.45;397.42;;;;;;;;;;12838860;23;20341;-86
2021/10/30 21:20:12;;;;;;;48.85;38.00;;;;;;;;;;12841150;23;20012;-85
2021/10/30 21:25:13;;;;;;;23.30;17.60;;;;;;;;;;12842922;23;20008;-87
2021/10/30 21:30:16;;;;;;;16.35;13.80;;;;;;;;;;12866641;23;20021;-86
2021/10/30 21:35:17;;;;;;;4.05;3.47;;;;;;;;;;12852505;23;20000;-87
2021/10/30 21:40:18;;;;;;;5.10;4.22;;;;;;;;;;12902808;23;20075;-87
2021/10/30 21:45:19;;;;;;;3.97;3.13;;;;;;;;;;12855648;23;20425;-88
2021/10/30 21:50:20;;;;;;;4.13;3.08;;;;;;;;;;12837496;23;20100;-87
2021/10/30 21:55:21;;;;;;;4.50;3.40;;;;;;;;;;12838159;23;20000;-87
2021/10/30 22:00:24;;;;;;;3.88;3.38;;;;;;;;;;12842223;23;20389;-88
2021/10/30 22:05:25;;;;;;;4.53;3.60;;;;;;;;;;12839708;23;20008;-87
2021/10/30 22:10:26;;;;;;;4.72;3.78;;;;;;;;;;12867331;23;20298;-87
2021/10/30 22:15:27;;;;;;;4.45;3.60;;;;;;;;;;12839163;23;20044;-87
2021/10/30 22:20:28;;;;;;;5.07;4.40;;;;;;;;;;12842084;23;20009;-87
2021/10/30 22:25:29;;;;;;;4.22;3.28;;;;;;;;;;12844547;23;20009;-86
2021/10/30 22:30:30;;;;;;;4.05;3.22;;;;;;;;;;12847244;23;20011;-88
2021/10/30 22:35:33;;;;;;;5.60;4.82;;;;;;;;;;12875675;23;20039;-87
2021/10/30 22:40:34;;;;;;;3.97;3.33;;;;;;;;;;12841065;23;20001;-87
2021/10/30 22:45:35;;;;;;;3.85;3.42;;;;;;;;;;12840890;23;20092;-88
2021/10/30 22:50:37;;;;;;;3.63;3.13;;;;;;;;;;12842128;23;20015;-87
2021/10/30 22:55:38;;;;;;;3.67;3.35;;;;;;;;;;12840966;23;20001;-89
2021/10/30 23:00:39;;;;;;;3.70;3.28;;;;;;;;;;12840155;23;20432;-87
2021/10/30 23:05:40;;;;;;;4.85;3.97;;;;;;;;;;12869606;23;19999;-83
2021/10/30 23:10:41;;;;;;;3.42;2.95;;;;;;;;;;12873180;23;20000;-88
2021/10/30 23:15:42;;;;;;;4.03;3.22;;;;;;;;;;12872993;23;20349;-88
2021/10/30 23:20:43;;;;;;;3.10;2.63;;;;;;;;;;12843393;23;20008;-88
2021/10/30 23:25:45;;;;;;;3.65;3.28;;;;;;;;;;12847274;23;20556;-88
2021/10/30 23:30:46;;;;;;;4.97;3.20;;;;;;;;;;12858032;23;20009;-89
2021/10/30 23:35:47;;;;;;;5.30;3.70;;;;;;;;;;12840310;23;20024;-88
2021/10/30 23:40:48;;;;;;;3.50;3.10;;;;;;;;;;12838701;23;20008;-88
2021/10/30 23:45:49;;;;;;;3.42;2.78;;;;;;;;;;12838355;23;20005;-87
2021/10/30 23:50:50;;;;;;;5.57;3.47;;;;;;;;;;12839310;23;20143;-88
2021/10/30 23:55:51;;;;;;;4.03;3.13;;;;;;;;;;12865184;23;20072;-88
